Date,TemperatureHighF,TemperatureAvgF,TemperatureLowF,DewpointHighF,DewpointAvgF,DewpointLowF,HumidityHigh,HumidityAvg,HumidityLow,PressureMaxIn,PressureMinIn,WindSpeedMaxMPH,WindSpeedAvgMPH,GustSpeedMaxMPH,PrecipitationSumIn
2013-5-1,66.0,49.3,32.9,23.9,18.9,13.8,57,33,18,29.32,29.32,8,1,10,0.00
2013-5-2,72.0,54.3,37.4,28.5,22.5,16.4,54,31,19,29.32,29.32,7,1,8,0.00
2013-5-3,72.5,58.0,41.5,30.6,24.8,19.0,52,29,19,29.32,29.32,8,1,9,0.00
2013-5-4,79.7,62.2,43.0,36.9,27.3,18.2,61,30,15,29.32,29.32,9,1,10,0.00
2013-5-5,83.5,64.6,45.0,34.1,28.4,20.6,52,28,14,29.32,29.32,8,1,9,0.00
2013-5-6,86.4,66.6,47.1,34.9,28.9,21.9,49,27,14,29.32,29.32,6,1,8,0.00
2013-5-7,71.6,58.9,50.5,36.5,32.4,26.9,56,38,22,29.32,29.32,6,1,6,0.00
2013-5-8,68.0,56.0,47.7,40.6,34.7,28.8,63,47,24,29.32,29.32,5,0,5,0.00
2013-5-9,71.6,57.1,45.1,43.0,35.5,28.2,69,48,23,29.32,29.32,5,0,6,0.00
2013-5-10,79.0,62.7,46.2,46.6,34.9,29.7,69,40,17,29.32,29.32,6,0,6,0.00
2013-5-11,80.8,66.3,54.0,38.0,32.3,25.4,50,30,17,29.32,29.32,4,0,6,0.00
2013-5-12,70.9,62.7,57.2,49.8,41.2,30.8,68,47,23,29.32,29.32,5,0,5,0.16
2013-5-13,66.0,55.6,45.9,50.3,39.5,24.8,72,56,33,29.32,29.32,10,1,12,0.08
2013-5-14,64.4,53.2,42.6,32.2,24.7,17.1,59,36,18,29.32,29.32,7,1,8,0.00
2013-5-15,67.6,53.0,43.3,40.2,28.6,22.7,64,41,23,29.32,29.32,6,0,6,0.00
2013-5-16,70.2,60.1,51.1,47.0,35.7,25.2,72,45,19,29.32,29.32,6,0,8,0.00
2013-5-17,62.2,55.5,51.6,44.1,35.4,26.5,68,48,27,29.32,29.32,6,0,6,0.00
2013-5-18,60.3,54.7,50.4,35.8,32.5,28.4,56,43,31,29.32,29.32,6,0,6,0.00
2013-5-19,66.7,56.9,49.8,39.5,32.8,25.6,64,42,24,29.32,29.32,6,1,8,0.00
2013-5-20,67.5,55.8,46.0,39.3,32.4,25.3,67,44,23,29.32,29.32,5,0,5,0.00
2013-5-21,60.1,51.2,45.5,39.6,30.2,22.3,68,46,26,29.32,29.32,6,1,9,0.16
2013-5-22,52.5,46.2,41.4,39.5,32.9,26.4,69,60,46,29.32,29.32,4,0,6,0.08
2013-5-23,58.8,49.1,42.3,40.8,33.6,25.4,71,56,29,29.32,29.32,4,0,5,0.00
2013-5-24,62.4,52.5,44.8,40.6,32.9,24.6,70,50,25,29.32,29.32,5,0,6,0.00
2013-5-25,64.8,54.8,48.2,41.2,32.0,23.4,68,45,23,29.32,29.32,4,0,6,0.00
2013-5-26,65.5,55.2,48.0,44.7,36.1,29.3,65,50,26,29.32,29.32,5,0,6,0.00
2013-5-27,60.6,54.8,48.2,46.5,41.7,38.1,71,62,47,29.32,29.32,5,0,8,0.24
2013-5-28,61.5,55.4,50.9,44.5,37.9,31.8,70,53,34,29.32,29.32,5,0,6,0.04
2013-5-29,56.8,55.2,48.6,45.9,38.8,34.4,71,55,44,29.32,29.32,8,1,12,0.00
2013-5-30,56.8,56.8,56.8,38.9,38.9,38.9,51,51,51,29.32,29.32,8,1,9,0.00
2013-5-31,56.8,56.8,56.8,38.9,38.9,38.9,51,51,51,29.32,29.32,5,0,6,0.00